sensor_id;sensor_type;location;lat;lon;timestamp;pressure;altitude;pressure_sealevel;temperature;humidity
28432;BME280;15664;51.302;7.744;2023-03-23T00:00:53;82925.06;;;-146.98;100.00
28432;BME280;15664;51.302;7.744;2023-03-23T00:03:20;82937.28;;;-146.98;100.00
28432;BME280;15664;51.302;7.744;2023-03-23T00:05:47;82929.16;;;-146.98;100.00
28432;BME280;15664;51.302;7.744;2023-03-23T00:08:19;82953.56;;;-146.98;100.00
28432;BME280;15664;51.302;7.744;2023-03-23T00:10:50;82949.50;;;-146.98;100.00
28432;BME280;15664;51.302;7.744;2023-03-23T00:13:25;82925.06;;;-146.98;100.00
28432;BME280;15664;51.302;7.744;2023-03-23T00:15:52;82951.53;;;-146.98;100.00
28432;BME280;15664;51.302;7.744;2023-03-23T00:18:21;82965.78;;;-146.98;100.00
28432;BME280;15664;51.302;7.744;2023-03-23T00:20:55;82931.19;;;-146.98;100.00
28432;BME280;15664;51.302;7.744;2023-03-23T00:23:23;82937.28;;;-146.98;100.00
28432;BME280;15664;51.302;7.744;2023-03-23T00:25:51;82978.00;;;-146.98;100.00
28432;BME280;15664;51.302;7.744;2023-03-23T00:28:19;82955.63;;;-146.98;100.00
28432;BME280;15664;51.302;7.744;2023-03-23T00:30:59;82975.97;;;-146.98;100.00
28432;BME280;15664;51.302;7.744;2023-03-23T00:33:28;82949.50;;;-146.98;100.00
28432;BME280;15664;51.302;7.744;2023-03-23T00:35:54;82935.25;;;-146.98;100.00
28432;BME280;15664;51.302;7.744;2023-03-23T00:38:24;82969.88;;;-146.98;100.00
28432;BME280;15664;51.302;7.744;2023-03-23T00:40:52;82959.69;;;-146.98;100.00
28432;BME280;15664;51.302;7.744;2023-03-23T00:43:20;82961.72;;;-146.98;100.00
28432;BME280;15664;51.302;7.744;2023-03-23T00:45:50;82935.25;;;-146.98;100.00
28432;BME280;15664;51.302;7.744;2023-03-23T00:48:18;82973.94;;;-146.98;100.00
28432;BME280;15664;51.302;7.744;2023-03-23T00:50:43;82912.84;;;-146.98;100.00
28432;BME280;15664;51.302;7.744;2023-03-23T00:53:09;82937.28;;;-146.98;100.00
28432;BME280;15664;51.302;7.744;2023-03-23T00:55:35;82943.41;;;-146.98;100.00
28432;BME280;15664;51.302;7.744;2023-03-23T00:58:00;82906.75;;;-146.98;100.00
28432;BME280;15664;51.302;7.744;2023-03-23T01:00:26;82949.50;;;-146.98;100.00
28432;BME280;15664;51.302;7.744;2023-03-23T01:02:53;82902.66;;;-146.98;100.00
28432;BME280;15664;51.302;7.744;2023-03-23T01:05:19;82884.34;;;-146.98;100.00
28432;BME280;15664;51.302;7.744;2023-03-23T01:07:45;82910.81;;;-146.98;100.00
28432;BME280;15664;51.302;7.744;2023-03-23T01:10:11;82880.28;;;-146.98;100.00
28432;BME280;15664;51.302;7.744;2023-03-23T01:12:43;82912.84;;;-146.98;100.00
28432;BME280;15664;51.302;7.744;2023-03-23T01:15:13;82921.00;;;-146.98;100.00
28432;BME280;15664;51.302;7.744;2023-03-23T01:17:40;82888.41;;;-146.98;100.00
28432;BME280;15664;51.302;7.744;2023-03-23T01:20:06;82835.47;;;-146.98;100.00
28432;BME280;15664;51.302;7.744;2023-03-23T01:22:32;82837.50;;;-146.98;100.00
28432;BME280;15664;51.302;7.744;2023-03-23T01:24:58;82918.97;;;-146.98;100.00
28432;BME280;15664;51.302;7.744;2023-03-23T01:27:23;82872.13;;;-146.98;100.00
28432;BME280;15664;51.302;7.744;2023-03-23T01:29:49;82890.44;;;-146.98;99.98
28432;BME280;15664;51.302;7.744;2023-03-23T01:32:16;82863.97;;;-146.98;100.00
28432;BME280;15664;51.302;7.744;2023-03-23T01:34:41;82910.81;;;-146.98;99.59
28432;BME280;15664;51.302;7.744;2023-03-23T01:37:07;82874.16;;;-146.98;99.36
28432;BME280;15664;51.302;7.744;2023-03-23T01:39:32;82839.53;;;-146.98;98.85
28432;BME280;15664;51.302;7.744;2023-03-23T01:41:58;82894.53;;;-146.98;99.40
28432;BME280;15664;51.302;7.744;2023-03-23T01:46:59;82886.38;;;-146.98;100.00
28432;BME280;15664;51.302;7.744;2023-03-23T01:49:28;82861.94;;;-146.98;100.00
28432;BME280;15664;51.302;7.744;2023-03-23T01:52:14;82892.50;;;-146.98;100.00
28432;BME280;15664;51.302;7.744;2023-03-23T01:54:45;82918.97;;;-146.98;100.00
28432;BME280;15664;51.302;7.744;2023-03-23T01:57:15;82921.00;;;-146.98;100.00
28432;BME280;15664;51.302;7.744;2023-03-23T01:59:45;82896.56;;;-146.98;100.00
28432;BME280;15664;51.302;7.744;2023-03-23T02:02:23;82908.78;;;-146.98;100.00
28432;BME280;15664;51.302;7.744;2023-03-23T02:04:51;82921.00;;;-146.98;100.00
28432;BME280;15664;51.302;7.744;2023-03-23T02:07:20;82951.53;;;-146.98;100.00
28432;BME280;15664;51.302;7.744;2023-03-23T02:09:50;82943.41;;;-146.98;100.00
28432;BME280;15664;51.302;7.744;2023-03-23T02:12:15;82967.84;;;-146.98;100.00
28432;BME280;15664;51.302;7.744;2023-03-23T02:14:41;82935.25;;;-146.98;100.00
28432;BME280;15664;51.302;7.744;2023-03-23T02:17:18;82931.19;;;-146.98;100.00
28432;BME280;15664;51.302;7.744;2023-03-23T02:20:29;82971.91;;;-146.98;100.00
28432;BME280;15664;51.302;7.744;2023-03-23T02:26:42;82929.16;;;-146.98;100.00
28432;BME280;15664;51.302;7.744;2023-03-23T02:29:15;82957.66;;;-146.98;100.00
28432;BME280;15664;51.302;7.744;2023-03-23T02:32:04;83022.81;;;-146.98;100.00
28432;BME280;15664;51.302;7.744;2023-03-23T02:34:44;82973.94;;;-146.98;100.00
28432;BME280;15664;51.302;7.744;2023-03-23T02:40:20;83026.88;;;-146.98;100.00
28432;BME280;15664;51.302;7.744;2023-03-23T02:42:50;82982.09;;;-146.98;100.00
28432;BME280;15664;51.302;7.744;2023-03-23T02:45:19;83002.44;;;-146.98;100.00
28432;BME280;15664;51.302;7.744;2023-03-23T02:47:49;82953.56;;;-146.98;100.00
28432;BME280;15664;51.302;7.744;2023-03-23T02:50:17;83010.59;;;-146.98;100.00
28432;BME280;15664;51.302;7.744;2023-03-23T02:52:46;82980.06;;;-146.98;100.00
28432;BME280;15664;51.302;7.744;2023-03-23T02:55:14;82955.63;;;-146.98;100.00
28432;BME280;15664;51.302;7.744;2023-03-23T02:57:41;82996.34;;;-146.98;100.00
28432;BME280;15664;51.302;7.744;2023-03-23T03:00:13;83026.88;;;-146.98;100.00
28432;BME280;15664;51.302;7.744;2023-03-23T03:02:43;82984.13;;;-146.98;100.00
28432;BME280;15664;51.302;7.744;2023-03-23T03:07:57;83063.53;;;-146.98;100.00
28432;BME280;15664;51.302;7.744;2023-03-23T03:10:36;83006.53;;;-146.98;100.00
28432;BME280;15664;51.302;7.744;2023-03-23T03:13:28;83030.97;;;-146.98;100.00
28432;BME280;15664;51.302;7.744;2023-03-23T03:21:12;83026.88;;;-146.98;100.00
28432;BME280;15664;51.302;7.744;2023-03-23T03:23:42;82990.22;;;-146.98;100.00
28432;BME280;15664;51.302;7.744;2023-03-23T03:26:11;83030.97;;;-146.98;100.00
28432;BME280;15664;51.302;7.744;2023-03-23T03:28:48;83039.09;;;-146.98;100.00
28432;BME280;15664;51.302;7.744;2023-03-23T03:31:19;83022.81;;;-146.98;100.00
28432;BME280;15664;51.302;7.744;2023-03-23T03:33:45;83012.63;;;-146.98;100.00
28432;BME280;15664;51.302;7.744;2023-03-23T03:36:18;83069.66;;;-146.98;100.00
28432;BME280;15664;51.302;7.744;2023-03-23T03:38:49;82994.31;;;-146.98;100.00
28432;BME280;15664;51.302;7.744;2023-03-23T03:41:17;82955.63;;;-146.98;100.00
28432;BME280;15664;51.302;7.744;2023-03-23T03:43:45;83030.97;;;-146.98;100.00
28432;BME280;15664;51.302;7.744;2023-03-23T03:46:10;83057.44;;;-146.98;100.00
28432;BME280;15664;51.302;7.744;2023-03-23T03:48:37;83047.25;;;-146.98;100.00
28432;BME280;15664;51.302;7.744;2023-03-23T03:51:03;83008.56;;;-146.98;100.00
28432;BME280;15664;51.302;7.744;2023-03-23T03:53:32;83039.09;;;-146.98;100.00
28432;BME280;15664;51.302;7.744;2023-03-23T03:55:58;83018.75;;;-146.98;100.00
28432;BME280;15664;51.302;7.744;2023-03-23T03:58:27;83022.81;;;-146.98;100.00
28432;BME280;15664;51.302;7.744;2023-03-23T04:01:05;83026.88;;;-146.98;100.00
28432;BME280;15664;51.302;7.744;2023-03-23T04:03:36;83071.69;;;-146.98;100.00
28432;BME280;15664;51.302;7.744;2023-03-23T04:06:24;82961.72;;;-146.98;100.00
28432;BME280;15664;51.302;7.744;2023-03-23T04:08:55;83024.84;;;-146.98;100.00
28432;BME280;15664;51.302;7.744;2023-03-23T04:11:21;83028.91;;;-146.98;100.00
28432;BME280;15664;51.302;7.744;2023-03-23T04:13:47;83047.25;;;-146.98;100.00
28432;BME280;15664;51.302;7.744;2023-03-23T04:16:24;83024.84;;;-146.98;100.00
28432;BME280;15664;51.302;7.744;2023-03-23T04:18:53;82998.38;;;-146.98;100.00
28432;BME280;15664;51.302;7.744;2023-03-23T04:21:23;83024.84;;;-146.98;100.00
28432;BME280;15664;51.302;7.744;2023-03-23T04:23:51;83030.97;;;-146.98;100.00
28432;BME280;15664;51.302;7.744;2023-03-23T04:26:19;83024.84;;;-146.98;100.00
28432;BME280;15664;51.302;7.744;2023-03-23T04:28:48;82978.00;;;-146.98;100.00
28432;BME280;15664;51.302;7.744;2023-03-23T04:31:34;83004.50;;;-146.98;100.00
28432;BME280;15664;51.302;7.744;2023-03-23T04:34:11;83041.13;;;-146.98;100.00
28432;BME280;15664;51.302;7.744;2023-03-23T04:36:45;83014.66;;;-146.98;100.00
28432;BME280;15664;51.302;7.744;2023-03-23T04:39:16;83010.59;;;-146.98;100.00
28432;BME280;15664;51.302;7.744;2023-03-23T04:41:44;82990.22;;;-146.98;100.00
28432;BME280;15664;51.302;7.744;2023-03-23T04:44:22;83045.22;;;-146.98;100.00
28432;BME280;15664;51.302;7.744;2023-03-23T04:47:03;83022.81;;;-146.98;100.00
28432;BME280;15664;51.302;7.744;2023-03-23T04:49:33;82978.00;;;-146.98;100.00
28432;BME280;15664;51.302;7.744;2023-03-23T04:52:11;83014.66;;;-146.98;100.00
28432;BME280;15664;51.302;7.744;2023-03-23T04:54:54;83010.59;;;-146.98;100.00
28432;BME280;15664;51.302;7.744;2023-03-23T04:57:22;82957.66;;;-146.98;100.00
28432;BME280;15664;51.302;7.744;2023-03-23T05:00:08;83018.75;;;-146.98;100.00
28432;BME280;15664;51.302;7.744;2023-03-23T05:02:39;83012.63;;;-146.98;100.00
28432;BME280;15664;51.302;7.744;2023-03-23T05:05:07;83016.72;;;-146.98;100.00
28432;BME280;15664;51.302;7.744;2023-03-23T05:07:33;82971.91;;;-146.98;100.00
28432;BME280;15664;51.302;7.744;2023-03-23T05:09:58;82996.34;;;-146.98;100.00
28432;BME280;15664;51.302;7.744;2023-03-23T05:12:28;83012.63;;;-146.98;100.00
28432;BME280;15664;51.302;7.744;2023-03-23T05:14:58;83006.53;;;-146.98;100.00
28432;BME280;15664;51.302;7.744;2023-03-23T05:17:26;83041.13;;;-146.98;100.00
28432;BME280;15664;51.302;7.744;2023-03-23T05:19:56;82982.09;;;-146.98;100.00
28432;BME280;15664;51.302;7.744;2023-03-23T05:22:35;82978.00;;;-146.98;100.00
28432;BME280;15664;51.302;7.744;2023-03-23T05:25:05;82967.84;;;-146.98;100.00
28432;BME280;15664;51.302;7.744;2023-03-23T05:27:35;82992.28;;;-146.98;100.00
28432;BME280;15664;51.302;7.744;2023-03-23T05:30:10;82969.88;;;-146.98;100.00
28432;BME280;15664;51.302;7.744;2023-03-23T05:32:38;82988.19;;;-146.98;100.00
28432;BME280;15664;51.302;7.744;2023-03-23T05:35:20;83006.53;;;-146.98;100.00
28432;BME280;15664;51.302;7.744;2023-03-23T05:37:47;83030.97;;;-146.98;100.00
28432;BME280;15664;51.302;7.744;2023-03-23T05:40:12;82998.38;;;-146.98;100.00
28432;BME280;15664;51.302;7.744;2023-03-23T05:42:44;82945.44;;;-146.98;100.00
28432;BME280;15664;51.302;7.744;2023-03-23T05:45:15;82969.88;;;-146.98;100.00
28432;BME280;15664;51.302;7.744;2023-03-23T05:47:41;83002.44;;;-146.98;100.00
28432;BME280;15664;51.302;7.744;2023-03-23T05:50:12;82965.78;;;-146.98;100.00
28432;BME280;15664;51.302;7.744;2023-03-23T05:52:39;82998.38;;;-146.98;100.00
28432;BME280;15664;51.302;7.744;2023-03-23T05:55:09;82996.34;;;-146.98;100.00
28432;BME280;15664;51.302;7.744;2023-03-23T05:57:37;82980.06;;;-146.98;100.00
28432;BME280;15664;51.302;7.744;2023-03-23T06:00:06;82957.66;;;-146.98;100.00
28432;BME280;15664;51.302;7.744;2023-03-23T06:02:50;82982.09;;;-146.98;100.00
28432;BME280;15664;51.302;7.744;2023-03-23T06:05:26;83026.88;;;-146.98;100.00
28432;BME280;15664;51.302;7.744;2023-03-23T06:07:54;82994.31;;;-146.98;100.00
28432;BME280;15664;51.302;7.744;2023-03-23T06:10:20;82963.75;;;-146.98;100.00
28432;BME280;15664;51.302;7.744;2023-03-23T06:12:53;82984.13;;;-146.98;100.00
28432;BME280;15664;51.302;7.744;2023-03-23T06:15:32;82961.72;;;-146.98;100.00
28432;BME280;15664;51.302;7.744;2023-03-23T06:17:59;82961.72;;;-146.98;100.00
28432;BME280;15664;51.302;7.744;2023-03-23T06:20:29;82910.81;;;-146.98;100.00
28432;BME280;15664;51.302;7.744;2023-03-23T06:22:58;82984.13;;;-146.98;100.00
28432;BME280;15664;51.302;7.744;2023-03-23T06:25:27;82949.50;;;-146.98;100.00
28432;BME280;15664;51.302;7.744;2023-03-23T06:27:53;82925.06;;;-146.98;100.00
28432;BME280;15664;51.302;7.744;2023-03-23T06:30:20;82963.75;;;-146.98;100.00
28432;BME280;15664;51.302;7.744;2023-03-23T06:32:46;82965.78;;;-146.98;100.00
28432;BME280;15664;51.302;7.744;2023-03-23T06:35:14;82971.91;;;-146.98;100.00
28432;BME280;15664;51.302;7.744;2023-03-23T06:38:05;82941.38;;;-146.98;100.00
28432;BME280;15664;51.302;7.744;2023-03-23T06:40:38;82971.91;;;-146.98;100.00
28432;BME280;15664;51.302;7.744;2023-03-23T06:43:04;82925.06;;;-146.98;100.00
28432;BME280;15664;51.302;7.744;2023-03-23T06:45:48;82921.00;;;-146.98;100.00
28432;BME280;15664;51.302;7.744;2023-03-23T06:48:34;82935.25;;;-146.98;100.00
28432;BME280;15664;51.302;7.744;2023-03-23T06:51:00;82908.78;;;-146.98;100.00
28432;BME280;15664;51.302;7.744;2023-03-23T06:53:27;82939.31;;;-146.98;100.00
28432;BME280;15664;51.302;7.744;2023-03-23T06:55:55;82904.72;;;-146.98;100.00
28432;BME280;15664;51.302;7.744;2023-03-23T06:58:20;82959.69;;;-146.98;100.00
28432;BME280;15664;51.302;7.744;2023-03-23T07:00:47;82933.22;;;-146.98;100.00
28432;BME280;15664;51.302;7.744;2023-03-23T07:03:14;82933.22;;;-146.98;100.00
28432;BME280;15664;51.302;7.744;2023-03-23T07:05:40;82923.03;;;-146.98;100.00
28432;BME280;15664;51.302;7.744;2023-03-23T07:08:08;82896.56;;;-146.98;100.00
28432;BME280;15664;51.302;7.744;2023-03-23T07:10:39;82910.81;;;-146.98;100.00
28432;BME280;15664;51.302;7.744;2023-03-23T07:13:05;82933.22;;;-146.98;100.00
28432;BME280;15664;51.302;7.744;2023-03-23T07:15:42;82904.72;;;-146.98;100.00
28432;BME280;15664;51.302;7.744;2023-03-23T07:18:07;82884.34;;;-146.98;100.00
28432;BME280;15664;51.302;7.744;2023-03-23T07:20:39;82894.53;;;-146.98;100.00
28432;BME280;15664;51.302;7.744;2023-03-23T07:23:04;82886.38;;;-146.98;100.00
28432;BME280;15664;51.302;7.744;2023-03-23T07:25:52;82892.50;;;-146.98;100.00
28432;BME280;15664;51.302;7.744;2023-03-23T07:28:24;82876.19;;;-146.98;100.00
28432;BME280;15664;51.302;7.744;2023-03-23T07:30:52;82888.41;;;-146.98;100.00
28432;BME280;15664;51.302;7.744;2023-03-23T07:33:19;82912.84;;;-146.98;100.00
28432;BME280;15664;51.302;7.744;2023-03-23T07:35:45;82904.72;;;-146.98;100.00
28432;BME280;15664;51.302;7.744;2023-03-23T07:38:15;82859.91;;;-146.98;100.00
28432;BME280;15664;51.302;7.744;2023-03-23T07:40:45;82851.75;;;-146.98;100.00
28432;BME280;15664;51.302;7.744;2023-03-23T07:43:14;82872.13;;;-146.98;100.00
28432;BME280;15664;51.302;7.744;2023-03-23T07:46:06;82859.91;;;-146.98;100.00
28432;BME280;15664;51.302;7.744;2023-03-23T07:48:49;82880.28;;;-146.98;99.51
28432;BME280;15664;51.302;7.744;2023-03-23T07:51:16;82855.84;;;-146.98;99.85
28432;BME280;15664;51.302;7.744;2023-03-23T07:53:45;82855.84;;;-146.98;100.00
28432;BME280;15664;51.302;7.744;2023-03-23T07:56:31;82859.91;;;-146.98;99.92
28432;BME280;15664;51.302;7.744;2023-03-23T07:59:19;82849.72;;;-146.98;99.14
28432;BME280;15664;51.302;7.744;2023-03-23T08:01:46;82857.88;;;-146.98;97.76
28432;BME280;15664;51.302;7.744;2023-03-23T08:04:33;82880.28;;;-146.98;97.78
28432;BME280;15664;51.302;7.744;2023-03-23T08:07:26;82806.97;;;-146.98;96.87
28432;BME280;15664;51.302;7.744;2023-03-23T08:10:01;82802.91;;;-146.98;96.55
28432;BME280;15664;51.302;7.744;2023-03-23T08:12:26;82851.75;;;-146.98;96.63
28432;BME280;15664;51.302;7.744;2023-03-23T08:15:14;82782.53;;;-146.98;97.05
28432;BME280;15664;51.302;7.744;2023-03-23T08:17:45;82831.41;;;-146.98;94.99
28432;BME280;15664;51.302;7.744;2023-03-23T08:20:45;82823.25;;;-146.98;94.74
28432;BME280;15664;51.302;7.744;2023-03-23T08:23:22;82802.91;;;-146.98;93.38
28432;BME280;15664;51.302;7.744;2023-03-23T08:26:07;82815.13;;;-146.98;94.09
28432;BME280;15664;51.302;7.744;2023-03-23T08:28:51;82831.41;;;-146.98;93.64
28432;BME280;15664;51.302;7.744;2023-03-23T08:31:20;82770.31;;;-146.98;92.96
28432;BME280;15664;51.302;7.744;2023-03-23T08:33:51;82794.75;;;-146.98;91.10
28432;BME280;15664;51.302;7.744;2023-03-23T08:36:31;82782.53;;;-146.98;91.58
28432;BME280;15664;51.302;7.744;2023-03-23T08:39:13;82747.91;;;-146.98;91.13
28432;BME280;15664;51.302;7.744;2023-03-23T08:41:57;82806.97;;;-146.98;89.50
28432;BME280;15664;51.302;7.744;2023-03-23T08:44:46;82790.69;;;-146.98;89.62
28432;BME280;15664;51.302;7.744;2023-03-23T08:47:35;82735.69;;;-146.98;89.91
28432;BME280;15664;51.302;7.744;2023-03-23T08:50:31;82770.31;;;-146.98;88.56
28432;BME280;15664;51.302;7.744;2023-03-23T08:53:12;82768.28;;;-146.98;87.94
28432;BME280;15664;51.302;7.744;2023-03-23T08:55:48;82745.88;;;-146.98;87.17
28432;BME280;15664;51.302;7.744;2023-03-23T08:58:24;82721.44;;;-146.98;86.22
28432;BME280;15664;51.302;7.744;2023-03-23T09:01:14;82717.38;;;-146.98;86.15
28432;BME280;15664;51.302;7.744;2023-03-23T09:03:43;82754.03;;;-146.98;86.48
28432;BME280;15664;51.302;7.744;2023-03-23T09:06:44;82737.72;;;-146.98;86.87
28432;BME280;15664;51.302;7.744;2023-03-23T09:09:11;82705.16;;;-146.98;85.63
28432;BME280;15664;51.302;7.744;2023-03-23T09:11:37;82692.94;;;-146.98;86.00
28432;BME280;15664;51.302;7.744;2023-03-23T09:14:05;82721.44;;;-146.98;85.21
28432;BME280;15664;51.302;7.744;2023-03-23T09:16:31;82711.25;;;-146.98;85.59
28432;BME280;15664;51.302;7.744;2023-03-23T09:18:58;82684.78;;;-146.98;85.13
28432;BME280;15664;51.302;7.744;2023-03-23T09:21:25;82694.97;;;-146.98;84.57
28432;BME280;15664;51.302;7.744;2023-03-23T09:23:51;82670.53;;;-146.98;85.49
28432;BME280;15664;51.302;7.744;2023-03-23T09:26:17;82713.31;;;-146.98;84.81
28432;BME280;15664;51.302;7.744;2023-03-23T09:28:43;82672.56;;;-146.98;84.46
28432;BME280;15664;51.302;7.744;2023-03-23T09:31:10;82660.34;;;-146.98;84.80
28432;BME280;15664;51.302;7.744;2023-03-23T09:33:37;82650.19;;;-146.98;83.23
28432;BME280;15664;51.302;7.744;2023-03-23T09:36:02;82674.63;;;-146.98;83.06
28432;BME280;15664;51.302;7.744;2023-03-23T09:38:33;82684.78;;;-146.98;82.51
28432;BME280;15664;51.302;7.744;2023-03-23T09:41:12;82682.75;;;-146.98;83.83
28432;BME280;15664;51.302;7.744;2023-03-23T09:46:52;82707.19;;;-146.98;87.54
28432;BME280;15664;51.302;7.744;2023-03-23T09:49:40;82804.94;;;-146.98;88.96
28432;BME280;15664;51.302;7.744;2023-03-23T09:52:17;82821.22;;;-146.98;91.81
28432;BME280;15664;51.302;7.744;2023-03-23T09:54:46;82811.03;;;-146.98;92.62
28432;BME280;15664;51.302;7.744;2023-03-23T09:57:28;82831.41;;;-146.98;92.77
28432;BME280;15664;51.302;7.744;2023-03-23T10:00:03;82839.53;;;-146.98;93.33
28432;BME280;15664;51.302;7.744;2023-03-23T10:02:49;82843.63;;;-146.98;93.82
28432;BME280;15664;51.302;7.744;2023-03-23T10:05:27;82839.53;;;-146.98;91.73
28432;BME280;15664;51.302;7.744;2023-03-23T10:07:54;82815.13;;;-146.98;92.41
28432;BME280;15664;51.302;7.744;2023-03-23T10:10:21;82823.25;;;-146.98;89.80
28432;BME280;15664;51.302;7.744;2023-03-23T10:13:06;82815.13;;;-146.98;89.77
28432;BME280;15664;51.302;7.744;2023-03-23T10:15:36;82745.88;;;-146.98;89.74
28432;BME280;15664;51.302;7.744;2023-03-23T10:18:19;82762.16;;;-146.98;88.73
28432;BME280;15664;51.302;7.744;2023-03-23T10:25:50;82739.78;;;-146.98;87.41
28432;BME280;15664;51.302;7.744;2023-03-23T10:28:20;82758.09;;;-146.98;87.20
28432;BME280;15664;51.302;7.744;2023-03-23T10:30:54;82731.63;;;-146.98;87.54
28432;BME280;15664;51.302;7.744;2023-03-23T10:36:05;82707.19;;;-146.98;85.83
28432;BME280;15664;51.302;7.744;2023-03-23T10:38:43;82697.00;;;-146.98;84.97
28432;BME280;15664;51.302;7.744;2023-03-23T10:41:12;82684.78;;;-146.98;84.30
28432;BME280;15664;51.302;7.744;2023-03-23T10:43:38;82680.72;;;-146.98;83.43
28432;BME280;15664;51.302;7.744;2023-03-23T10:46:25;82656.28;;;-146.98;82.09
28432;BME280;15664;51.302;7.744;2023-03-23T10:48:54;82613.53;;;-146.98;81.53
28432;BME280;15664;51.302;7.744;2023-03-23T10:51:28;82644.06;;;-146.98;79.21
28432;BME280;15664;51.302;7.744;2023-03-23T10:54:00;82591.13;;;-146.98;79.33
28432;BME280;15664;51.302;7.744;2023-03-23T10:56:40;82591.13;;;-146.98;78.68
28432;BME280;15664;51.302;7.744;2023-03-23T10:59:21;82564.66;;;-146.98;78.67
28432;BME280;15664;51.302;7.744;2023-03-23T11:01:54;82554.47;;;-146.98;77.52
28432;BME280;15664;51.302;7.744;2023-03-23T11:04:21;82564.66;;;-146.98;77.38
28432;BME280;15664;51.302;7.744;2023-03-23T11:06:51;82566.69;;;-146.98;76.80
28432;BME280;15664;51.302;7.744;2023-03-23T11:09:19;82595.19;;;-146.98;77.19
28432;BME280;15664;51.302;7.744;2023-03-23T11:11:52;82497.47;;;-146.98;75.10
28432;BME280;15664;51.302;7.744;2023-03-23T11:14:29;82505.63;;;-146.98;72.48
28432;BME280;15664;51.302;7.744;2023-03-23T11:17:00;82554.47;;;-146.98;74.56
28432;BME280;15664;51.302;7.744;2023-03-23T11:19:33;82627.78;;;-146.98;77.67
28432;BME280;15664;51.302;7.744;2023-03-23T11:22:07;82719.41;;;-146.98;84.57
28432;BME280;15664;51.302;7.744;2023-03-23T11:24:54;82713.31;;;-146.98;88.69
28432;BME280;15664;51.302;7.744;2023-03-23T11:27:20;82743.84;;;-146.98;90.15
28432;BME280;15664;51.302;7.744;2023-03-23T11:32:24;82833.44;;;-146.98;94.93
28432;BME280;15664;51.302;7.744;2023-03-23T11:34:56;82798.81;;;-146.98;97.80
28432;BME280;15664;51.302;7.744;2023-03-23T11:37:34;82839.53;;;-146.98;99.02
28432;BME280;15664;51.302;7.744;2023-03-23T11:40:14;82825.28;;;-146.98;99.18
28432;BME280;15664;51.302;7.744;2023-03-23T11:45:37;82833.44;;;-146.98;100.00
28432;BME280;15664;51.302;7.744;2023-03-23T11:51:10;82872.13;;;-146.98;100.00
28432;BME280;15664;51.302;7.744;2023-03-23T11:53:48;82847.69;;;-146.98;100.00
28432;BME280;15664;51.302;7.744;2023-03-23T11:56:37;82857.88;;;-146.98;100.00
28432;BME280;15664;51.302;7.744;2023-03-23T11:59:10;82829.38;;;-146.98;100.00
28432;BME280;15664;51.302;7.744;2023-03-23T12:01:44;82896.56;;;-146.98;100.00
28432;BME280;15664;51.302;7.744;2023-03-23T12:04:23;82835.47;;;-146.98;100.00
28432;BME280;15664;51.302;7.744;2023-03-23T12:09:58;82827.34;;;-146.98;100.00
28432;BME280;15664;51.302;7.744;2023-03-23T12:18:09;82857.88;;;-146.98;100.00
28432;BME280;15664;51.302;7.744;2023-03-23T12:20:48;82811.03;;;-146.98;100.00
28432;BME280;15664;51.302;7.744;2023-03-23T12:23:27;82825.28;;;-146.98;100.00
28432;BME280;15664;51.302;7.744;2023-03-23T12:26:01;82760.13;;;-146.98;100.00
28432;BME280;15664;51.302;7.744;2023-03-23T12:28:39;82782.53;;;-146.98;100.00
28432;BME280;15664;51.302;7.744;2023-03-23T12:37:33;82784.56;;;-146.98;100.00
28432;BME280;15664;51.302;7.744;2023-03-23T12:40:06;82863.97;;;-146.98;100.00
28432;BME280;15664;51.302;7.744;2023-03-23T12:43:00;82804.94;;;-146.98;100.00
28432;BME280;15664;51.302;7.744;2023-03-23T12:48:40;82890.44;;;-146.98;100.00
28432;BME280;15664;51.302;7.744;2023-03-23T12:53:55;82849.72;;;-146.98;100.00
28432;BME280;15664;51.302;7.744;2023-03-23T12:58:59;82827.34;;;-146.98;100.00
28432;BME280;15664;51.302;7.744;2023-03-23T13:01:50;82914.88;;;-146.98;100.00
28432;BME280;15664;51.302;7.744;2023-03-23T13:04:21;82918.97;;;-146.98;100.00
28432;BME280;15664;51.302;7.744;2023-03-23T13:06:49;82931.19;;;-146.98;100.00
28432;BME280;15664;51.302;7.744;2023-03-23T13:09:31;82912.84;;;-146.98;100.00
28432;BME280;15664;51.302;7.744;2023-03-23T13:11:59;82900.63;;;-146.98;100.00
28432;BME280;15664;51.302;7.744;2023-03-23T13:14:52;82880.28;;;-146.98;100.00
28432;BME280;15664;51.302;7.744;2023-03-23T13:17:35;82880.28;;;-146.98;100.00
28432;BME280;15664;51.302;7.744;2023-03-23T13:20:27;82896.56;;;-146.98;100.00
28432;BME280;15664;51.302;7.744;2023-03-23T13:23:02;82853.81;;;-146.98;100.00
28432;BME280;15664;51.302;7.744;2023-03-23T13:25:49;82855.84;;;-146.98;100.00
28432;BME280;15664;51.302;7.744;2023-03-23T13:28:22;82963.75;;;-146.98;100.00
28432;BME280;15664;51.302;7.744;2023-03-23T13:33:32;82817.16;;;-146.98;100.00
28432;BME280;15664;51.302;7.744;2023-03-23T13:36:12;82778.47;;;-146.98;100.00
28432;BME280;15664;51.302;7.744;2023-03-23T13:38:45;82727.56;;;-146.98;100.00
28432;BME280;15664;51.302;7.744;2023-03-23T13:41:13;82786.59;;;-146.98;100.00
28432;BME280;15664;51.302;7.744;2023-03-23T13:43:42;82778.47;;;-146.98;100.00
28432;BME280;15664;51.302;7.744;2023-03-23T13:46:13;82831.41;;;-146.98;100.00
28432;BME280;15664;51.302;7.744;2023-03-23T13:48:51;82819.19;;;-146.98;100.00
28432;BME280;15664;51.302;7.744;2023-03-23T13:51:36;82872.13;;;-146.98;100.00
28432;BME280;15664;51.302;7.744;2023-03-23T13:54:25;82896.56;;;-146.98;100.00
28432;BME280;15664;51.302;7.744;2023-03-23T13:56:57;82857.88;;;-146.98;100.00
28432;BME280;15664;51.302;7.744;2023-03-23T14:01:55;82811.03;;;-146.98;100.00
28432;BME280;15664;51.302;7.744;2023-03-23T14:04:22;82804.94;;;-146.98;100.00
28432;BME280;15664;51.302;7.744;2023-03-23T14:06:51;82711.25;;;-146.98;100.00